sensor_id;sensor_type;location;lat;lon;timestamp;P1;durP1;ratioP1;P2;durP2;ratioP2
48189;SDS011;33980;47.436;18.926;2022-09-13T00:01:24;1.40;;;1.30;;
48189;SDS011;33980;47.436;18.926;2022-09-13T00:03:53;3.40;;;1.65;;
48189;SDS011;33980;47.436;18.926;2022-09-13T00:06:23;2.83;;;1.70;;
48189;SDS011;33980;47.436;18.926;2022-09-13T00:08:52;1.95;;;1.33;;
48189;SDS011;33980;47.436;18.926;2022-09-13T00:11:22;2.55;;;1.30;;
48189;SDS011;33980;47.436;18.926;2022-09-13T00:13:52;3.30;;;1.65;;
48189;SDS011;33980;47.436;18.926;2022-09-13T00:16:23;2.30;;;1.30;;
48189;SDS011;33980;47.436;18.926;2022-09-13T00:18:53;2.08;;;1.40;;
48189;SDS011;33980;47.436;18.926;2022-09-13T00:21:23;4.12;;;1.73;;
48189;SDS011;33980;47.436;18.926;2022-09-13T00:26:23;2.22;;;1.62;;
48189;SDS011;33980;47.436;18.926;2022-09-13T00:28:53;2.03;;;1.53;;
48189;SDS011;33980;47.436;18.926;2022-09-13T00:31:23;2.15;;;1.40;;
48189;SDS011;33980;47.436;18.926;2022-09-13T00:33:53;2.75;;;1.50;;
48189;SDS011;33980;47.436;18.926;2022-09-13T00:36:26;1.48;;;1.35;;
48189;SDS011;33980;47.436;18.926;2022-09-13T00:38:55;3.10;;;1.50;;
48189;SDS011;33980;47.436;18.926;2022-09-13T00:41:24;2.35;;;1.42;;
48189;SDS011;33980;47.436;18.926;2022-09-13T00:43:55;2.30;;;1.33;;
48189;SDS011;33980;47.436;18.926;2022-09-13T00:46:26;1.98;;;1.42;;
48189;SDS011;33980;47.436;18.926;2022-09-13T00:49:03;1.95;;;1.33;;
48189;SDS011;33980;47.436;18.926;2022-09-13T00:51:42;2.25;;;1.60;;
48189;SDS011;33980;47.436;18.926;2022-09-13T00:54:14;2.75;;;1.70;;
48189;SDS011;33980;47.436;18.926;2022-09-13T00:56:46;1.67;;;1.20;;
48189;SDS011;33980;47.436;18.926;2022-09-13T00:59:18;3.92;;;1.85;;
48189;SDS011;33980;47.436;18.926;2022-09-13T01:01:52;1.83;;;1.40;;
48189;SDS011;33980;47.436;18.926;2022-09-13T01:04:23;1.58;;;1.30;;
48189;SDS011;33980;47.436;18.926;2022-09-13T01:06:56;3.03;;;1.40;;
48189;SDS011;33980;47.436;18.926;2022-09-13T01:09:26;2.87;;;1.60;;
48189;SDS011;33980;47.436;18.926;2022-09-13T01:11:57;4.62;;;1.70;;
48189;SDS011;33980;47.436;18.926;2022-09-13T01:14:30;2.40;;;1.33;;
48189;SDS011;33980;47.436;18.926;2022-09-13T01:17:00;1.30;;;1.20;;
48189;SDS011;33980;47.436;18.926;2022-09-13T01:19:29;2.22;;;1.40;;
48189;SDS011;33980;47.436;18.926;2022-09-13T01:22:19;2.78;;;1.50;;
48189;SDS011;33980;47.436;18.926;2022-09-13T01:28:24;2.70;;;1.87;;
48189;SDS011;33980;47.436;18.926;2022-09-13T01:31:23;2.87;;;1.35;;
48189;SDS011;33980;47.436;18.926;2022-09-13T01:34:02;3.20;;;1.77;;
48189;SDS011;33980;47.436;18.926;2022-09-13T01:36:43;1.75;;;1.33;;
48189;SDS011;33980;47.436;18.926;2022-09-13T01:39:24;1.42;;;1.30;;
48189;SDS011;33980;47.436;18.926;2022-09-13T01:42:04;2.30;;;1.37;;
48189;SDS011;33980;47.436;18.926;2022-09-13T01:44:42;3.12;;;1.37;;
48189;SDS011;33980;47.436;18.926;2022-09-13T01:47:21;2.53;;;1.50;;
48189;SDS011;33980;47.436;18.926;2022-09-13T01:49:56;4.65;;;1.45;;
48189;SDS011;33980;47.436;18.926;2022-09-13T01:52:30;1.55;;;1.45;;
48189;SDS011;33980;47.436;18.926;2022-09-13T01:55:06;1.62;;;1.27;;
48189;SDS011;33980;47.436;18.926;2022-09-13T01:57:42;3.75;;;1.67;;
48189;SDS011;33980;47.436;18.926;2022-09-13T02:00:14;2.05;;;1.55;;
48189;SDS011;33980;47.436;18.926;2022-09-13T02:02:48;2.50;;;1.58;;
48189;SDS011;33980;47.436;18.926;2022-09-13T02:05:21;2.67;;;1.45;;
48189;SDS011;33980;47.436;18.926;2022-09-13T02:07:55;2.03;;;1.40;;
48189;SDS011;33980;47.436;18.926;2022-09-13T02:10:28;1.52;;;1.40;;
48189;SDS011;33980;47.436;18.926;2022-09-13T02:13:01;1.33;;;1.23;;
48189;SDS011;33980;47.436;18.926;2022-09-13T02:15:35;1.95;;;1.40;;
48189;SDS011;33980;47.436;18.926;2022-09-13T02:20:36;2.22;;;1.52;;
48189;SDS011;33980;47.436;18.926;2022-09-13T02:23:07;2.67;;;1.80;;
48189;SDS011;33980;47.436;18.926;2022-09-13T02:25:39;4.18;;;1.60;;
48189;SDS011;33980;47.436;18.926;2022-09-13T02:28:09;1.62;;;1.52;;
48189;SDS011;33980;47.436;18.926;2022-09-13T02:30:40;1.98;;;1.42;;
48189;SDS011;33980;47.436;18.926;2022-09-13T02:33:15;2.67;;;1.98;;
48189;SDS011;33980;47.436;18.926;2022-09-13T02:35:47;1.50;;;1.30;;
48189;SDS011;33980;47.436;18.926;2022-09-13T02:38:19;4.65;;;1.75;;
48189;SDS011;33980;47.436;18.926;2022-09-13T02:40:54;2.45;;;1.40;;
48189;SDS011;33980;47.436;18.926;2022-09-13T02:43:26;2.80;;;1.58;;
48189;SDS011;33980;47.436;18.926;2022-09-13T02:46:01;2.72;;;1.60;;
48189;SDS011;33980;47.436;18.926;2022-09-13T02:48:42;1.73;;;1.48;;
48189;SDS011;33980;47.436;18.926;2022-09-13T02:51:17;1.52;;;1.30;;
48189;SDS011;33980;47.436;18.926;2022-09-13T02:53:52;2.92;;;1.65;;
48189;SDS011;33980;47.436;18.926;2022-09-13T02:56:28;2.37;;;1.50;;
48189;SDS011;33980;47.436;18.926;2022-09-13T02:59:02;1.73;;;1.42;;
48189;SDS011;33980;47.436;18.926;2022-09-13T03:01:33;1.83;;;1.58;;
48189;SDS011;33980;47.436;18.926;2022-09-13T03:04:04;2.10;;;1.50;;
48189;SDS011;33980;47.436;18.926;2022-09-13T03:06:33;1.73;;;1.33;;
48189;SDS011;33980;47.436;18.926;2022-09-13T03:09:02;1.50;;;1.40;;
48189;SDS011;33980;47.436;18.926;2022-09-13T03:11:35;2.42;;;1.65;;
48189;SDS011;33980;47.436;18.926;2022-09-13T03:14:15;2.08;;;1.35;;
48189;SDS011;33980;47.436;18.926;2022-09-13T03:16:51;2.65;;;1.92;;
48189;SDS011;33980;47.436;18.926;2022-09-13T03:19:35;3.20;;;1.87;;
48189;SDS011;33980;47.436;18.926;2022-09-13T03:22:14;1.50;;;1.30;;
48189;SDS011;33980;47.436;18.926;2022-09-13T03:24:53;2.35;;;1.70;;
48189;SDS011;33980;47.436;18.926;2022-09-13T03:27:30;1.90;;;1.33;;
48189;SDS011;33980;47.436;18.926;2022-09-13T03:30:03;1.90;;;1.33;;
48189;SDS011;33980;47.436;18.926;2022-09-13T03:32:35;3.22;;;2.00;;
48189;SDS011;33980;47.436;18.926;2022-09-13T03:35:15;2.87;;;1.58;;
48189;SDS011;33980;47.436;18.926;2022-09-13T03:37:52;1.60;;;1.25;;
48189;SDS011;33980;47.436;18.926;2022-09-13T03:40:30;2.22;;;1.55;;
48189;SDS011;33980;47.436;18.926;2022-09-13T03:43:03;3.05;;;1.67;;
48189;SDS011;33980;47.436;18.926;2022-09-13T03:45:37;2.40;;;1.67;;
48189;SDS011;33980;47.436;18.926;2022-09-13T03:48:10;1.77;;;1.33;;
48189;SDS011;33980;47.436;18.926;2022-09-13T03:50:41;3.35;;;1.95;;
48189;SDS011;33980;47.436;18.926;2022-09-13T03:53:11;1.92;;;1.58;;
48189;SDS011;33980;47.436;18.926;2022-09-13T03:55:42;1.98;;;1.48;;
48189;SDS011;33980;47.436;18.926;2022-09-13T03:58:11;7.03;;;1.65;;
48189;SDS011;33980;47.436;18.926;2022-09-13T04:00:40;3.17;;;1.48;;
48189;SDS011;33980;47.436;18.926;2022-09-13T04:03:09;4.85;;;1.75;;
48189;SDS011;33980;47.436;18.926;2022-09-13T04:05:38;3.17;;;1.70;;
48189;SDS011;33980;47.436;18.926;2022-09-13T04:08:08;1.60;;;1.50;;
48189;SDS011;33980;47.436;18.926;2022-09-13T04:10:37;2.62;;;1.60;;
48189;SDS011;33980;47.436;18.926;2022-09-13T04:13:06;2.75;;;1.60;;
48189;SDS011;33980;47.436;18.926;2022-09-13T04:15:35;1.92;;;1.70;;
48189;SDS011;33980;47.436;18.926;2022-09-13T04:18:04;1.83;;;1.20;;
48189;SDS011;33980;47.436;18.926;2022-09-13T04:20:32;6.12;;;1.90;;
48189;SDS011;33980;47.436;18.926;2022-09-13T04:23:01;1.90;;;1.50;;
48189;SDS011;33980;47.436;18.926;2022-09-13T04:25:32;3.17;;;1.75;;
48189;SDS011;33980;47.436;18.926;2022-09-13T04:28:01;2.33;;;1.50;;
48189;SDS011;33980;47.436;18.926;2022-09-13T04:30:32;2.78;;;1.70;;
48189;SDS011;33980;47.436;18.926;2022-09-13T04:33:01;2.53;;;1.35;;
48189;SDS011;33980;47.436;18.926;2022-09-13T04:35:29;3.75;;;2.05;;
48189;SDS011;33980;47.436;18.926;2022-09-13T04:37:58;2.45;;;1.40;;
48189;SDS011;33980;47.436;18.926;2022-09-13T04:40:27;3.62;;;1.50;;
48189;SDS011;33980;47.436;18.926;2022-09-13T04:42:57;4.30;;;1.60;;
48189;SDS011;33980;47.436;18.926;2022-09-13T04:45:25;2.78;;;1.87;;
48189;SDS011;33980;47.436;18.926;2022-09-13T04:47:55;4.72;;;2.22;;
48189;SDS011;33980;47.436;18.926;2022-09-13T04:50:23;1.80;;;1.42;;
48189;SDS011;33980;47.436;18.926;2022-09-13T04:52:53;2.03;;;1.40;;
48189;SDS011;33980;47.436;18.926;2022-09-13T04:55:22;2.65;;;1.50;;
48189;SDS011;33980;47.436;18.926;2022-09-13T04:57:52;3.58;;;2.22;;
48189;SDS011;33980;47.436;18.926;2022-09-13T05:00:23;2.72;;;1.50;;
48189;SDS011;33980;47.436;18.926;2022-09-13T05:02:55;1.50;;;1.40;;
48189;SDS011;33980;47.436;18.926;2022-09-13T05:05:24;3.17;;;1.60;;
48189;SDS011;33980;47.436;18.926;2022-09-13T05:07:54;3.65;;;1.77;;
48189;SDS011;33980;47.436;18.926;2022-09-13T05:10:23;3.50;;;2.12;;
48189;SDS011;33980;47.436;18.926;2022-09-13T05:12:52;3.60;;;2.55;;
48189;SDS011;33980;47.436;18.926;2022-09-13T05:15:21;3.67;;;1.80;;
48189;SDS011;33980;47.436;18.926;2022-09-13T05:17:51;3.20;;;1.70;;
48189;SDS011;33980;47.436;18.926;2022-09-13T05:20:20;4.57;;;2.22;;
48189;SDS011;33980;47.436;18.926;2022-09-13T05:22:49;3.15;;;1.73;;
48189;SDS011;33980;47.436;18.926;2022-09-13T05:25:17;2.30;;;1.70;;
48189;SDS011;33980;47.436;18.926;2022-09-13T05:27:52;3.08;;;1.98;;
48189;SDS011;33980;47.436;18.926;2022-09-13T05:30:20;2.78;;;1.87;;
48189;SDS011;33980;47.436;18.926;2022-09-13T05:32:49;2.90;;;2.10;;
48189;SDS011;33980;47.436;18.926;2022-09-13T05:35:19;1.85;;;1.50;;
48189;SDS011;33980;47.436;18.926;2022-09-13T05:37:48;3.55;;;2.00;;
48189;SDS011;33980;47.436;18.926;2022-09-13T05:40:16;3.03;;;1.67;;
48189;SDS011;33980;47.436;18.926;2022-09-13T05:42:45;2.75;;;1.83;;
48189;SDS011;33980;47.436;18.926;2022-09-13T05:45:14;2.78;;;1.92;;
48189;SDS011;33980;47.436;18.926;2022-09-13T05:47:42;3.22;;;1.52;;
48189;SDS011;33980;47.436;18.926;2022-09-13T05:50:11;5.60;;;2.30;;
48189;SDS011;33980;47.436;18.926;2022-09-13T05:53:01;3.28;;;2.03;;
48189;SDS011;33980;47.436;18.926;2022-09-13T05:55:30;3.47;;;2.07;;
48189;SDS011;33980;47.436;18.926;2022-09-13T05:58:00;2.20;;;1.70;;
48189;SDS011;33980;47.436;18.926;2022-09-13T06:00:29;6.72;;;1.70;;
48189;SDS011;33980;47.436;18.926;2022-09-13T06:02:58;3.58;;;1.80;;
48189;SDS011;33980;47.436;18.926;2022-09-13T06:05:27;1.77;;;1.50;;
48189;SDS011;33980;47.436;18.926;2022-09-13T06:07:58;4.05;;;2.17;;
48189;SDS011;33980;47.436;18.926;2022-09-13T06:10:30;3.70;;;2.30;;
48189;SDS011;33980;47.436;18.926;2022-09-13T06:12:59;2.83;;;1.92;;
48189;SDS011;33980;47.436;18.926;2022-09-13T06:15:28;3.12;;;1.40;;
48189;SDS011;33980;47.436;18.926;2022-09-13T06:17:57;2.65;;;1.55;;
48189;SDS011;33980;47.436;18.926;2022-09-13T06:20:26;3.40;;;1.73;;
48189;SDS011;33980;47.436;18.926;2022-09-13T06:22:54;3.33;;;1.80;;
48189;SDS011;33980;47.436;18.926;2022-09-13T06:25:23;5.03;;;2.17;;
48189;SDS011;33980;47.436;18.926;2022-09-13T06:27:53;3.50;;;1.95;;
48189;SDS011;33980;47.436;18.926;2022-09-13T06:30:22;2.55;;;1.37;;
48189;SDS011;33980;47.436;18.926;2022-09-13T06:32:50;2.12;;;1.48;;
48189;SDS011;33980;47.436;18.926;2022-09-13T06:35:19;2.45;;;1.25;;
48189;SDS011;33980;47.436;18.926;2022-09-13T06:37:48;5.10;;;1.55;;
48189;SDS011;33980;47.436;18.926;2022-09-13T06:40:17;1.62;;;1.17;;
48189;SDS011;33980;47.436;18.926;2022-09-13T06:42:51;4.05;;;1.92;;
48189;SDS011;33980;47.436;18.926;2022-09-13T06:45:21;4.57;;;1.67;;
48189;SDS011;33980;47.436;18.926;2022-09-13T06:47:51;2.37;;;1.50;;
48189;SDS011;33980;47.436;18.926;2022-09-13T06:50:21;2.60;;;1.45;;
48189;SDS011;33980;47.436;18.926;2022-09-13T06:52:49;2.85;;;1.35;;
48189;SDS011;33980;47.436;18.926;2022-09-13T06:55:18;2.22;;;1.45;;
48189;SDS011;33980;47.436;18.926;2022-09-13T06:57:48;6.10;;;1.30;;
48189;SDS011;33980;47.436;18.926;2022-09-13T07:00:17;3.03;;;1.62;;
48189;SDS011;33980;47.436;18.926;2022-09-13T07:02:50;2.87;;;1.30;;
48189;SDS011;33980;47.436;18.926;2022-09-13T07:05:19;3.58;;;1.52;;
48189;SDS011;33980;47.436;18.926;2022-09-13T07:07:48;1.25;;;1.15;;
48189;SDS011;33980;47.436;18.926;2022-09-13T07:10:17;2.33;;;1.48;;
48189;SDS011;33980;47.436;18.926;2022-09-13T07:12:46;1.67;;;1.25;;
48189;SDS011;33980;47.436;18.926;2022-09-13T07:15:14;2.15;;;1.77;;
48189;SDS011;33980;47.436;18.926;2022-09-13T07:17:43;2.45;;;1.20;;
48189;SDS011;33980;47.436;18.926;2022-09-13T07:20:13;2.97;;;1.50;;
48189;SDS011;33980;47.436;18.926;2022-09-13T07:22:43;2.92;;;1.17;;
48189;SDS011;33980;47.436;18.926;2022-09-13T07:25:12;2.10;;;1.20;;
48189;SDS011;33980;47.436;18.926;2022-09-13T07:27:41;2.92;;;1.42;;
48189;SDS011;33980;47.436;18.926;2022-09-13T07:30:09;2.20;;;1.30;;
48189;SDS011;33980;47.436;18.926;2022-09-13T07:32:38;3.03;;;1.23;;
48189;SDS011;33980;47.436;18.926;2022-09-13T07:35:08;2.03;;;1.25;;
48189;SDS011;33980;47.436;18.926;2022-09-13T07:37:39;1.50;;;1.00;;
48189;SDS011;33980;47.436;18.926;2022-09-13T07:40:09;1.37;;;0.90;;
48189;SDS011;33980;47.436;18.926;2022-09-13T07:42:38;1.00;;;0.90;;
48189;SDS011;33980;47.436;18.926;2022-09-13T07:45:07;2.87;;;1.37;;
48189;SDS011;33980;47.436;18.926;2022-09-13T07:47:37;1.70;;;1.00;;
48189;SDS011;33980;47.436;18.926;2022-09-13T07:50:06;3.83;;;1.25;;
48189;SDS011;33980;47.436;18.926;2022-09-13T07:52:34;2.30;;;1.58;;
48189;SDS011;33980;47.436;18.926;2022-09-13T07:55:06;1.75;;;1.02;;
48189;SDS011;33980;47.436;18.926;2022-09-13T07:57:35;9.43;;;2.08;;
48189;SDS011;33980;47.436;18.926;2022-09-13T08:00:03;1.62;;;1.20;;
48189;SDS011;33980;47.436;18.926;2022-09-13T08:02:37;2.30;;;1.27;;
48189;SDS011;33980;47.436;18.926;2022-09-13T08:05:06;1.90;;;1.40;;
48189;SDS011;33980;47.436;18.926;2022-09-13T08:07:35;1.77;;;0.90;;
48189;SDS011;33980;47.436;18.926;2022-09-13T08:10:04;3.97;;;1.37;;
48189;SDS011;33980;47.436;18.926;2022-09-13T08:12:35;2.67;;;1.50;;
48189;SDS011;33980;47.436;18.926;2022-09-13T08:15:04;1.73;;;1.20;;
48189;SDS011;33980;47.436;18.926;2022-09-13T08:17:33;2.92;;;1.50;;
48189;SDS011;33980;47.436;18.926;2022-09-13T08:20:02;3.00;;;1.40;;
48189;SDS011;33980;47.436;18.926;2022-09-13T08:22:32;2.65;;;1.40;;
48189;SDS011;33980;47.436;18.926;2022-09-13T08:25:06;2.33;;;1.20;;
48189;SDS011;33980;47.436;18.926;2022-09-13T08:27:35;3.15;;;1.25;;
48189;SDS011;33980;47.436;18.926;2022-09-13T08:30:06;2.55;;;1.50;;
48189;SDS011;33980;47.436;18.926;2022-09-13T08:32:36;2.87;;;1.30;;
48189;SDS011;33980;47.436;18.926;2022-09-13T08:35:05;2.28;;;1.12;;
48189;SDS011;33980;47.436;18.926;2022-09-13T08:37:34;3.08;;;1.60;;
48189;SDS011;33980;47.436;18.926;2022-09-13T08:40:03;2.08;;;1.23;;
48189;SDS011;33980;47.436;18.926;2022-09-13T08:42:38;3.15;;;1.45;;
48189;SDS011;33980;47.436;18.926;2022-09-13T08:45:15;1.42;;;0.98;;
48189;SDS011;33980;47.436;18.926;2022-09-13T08:47:45;1.90;;;1.20;;
48189;SDS011;33980;47.436;18.926;2022-09-13T08:50:16;2.30;;;1.33;;
48189;SDS011;33980;47.436;18.926;2022-09-13T08:52:57;2.15;;;1.05;;
48189;SDS011;33980;47.436;18.926;2022-09-13T08:55:33;2.25;;;1.20;;
48189;SDS011;33980;47.436;18.926;2022-09-13T08:58:13;2.33;;;1.17;;
48189;SDS011;33980;47.436;18.926;2022-09-13T09:00:53;2.75;;;1.27;;
48189;SDS011;33980;47.436;18.926;2022-09-13T09:03:27;1.12;;;1.00;;
48189;SDS011;33980;47.436;18.926;2022-09-13T09:05:59;2.60;;;1.50;;
48189;SDS011;33980;47.436;18.926;2022-09-13T09:08:29;2.45;;;1.33;;
48189;SDS011;33980;47.436;18.926;2022-09-13T09:11:01;2.90;;;1.30;;
48189;SDS011;33980;47.436;18.926;2022-09-13T09:13:33;2.40;;;1.27;;
48189;SDS011;33980;47.436;18.926;2022-09-13T09:16:05;2.80;;;1.05;;
48189;SDS011;33980;47.436;18.926;2022-09-13T09:18:38;4.15;;;1.58;;
48189;SDS011;33980;47.436;18.926;2022-09-13T09:21:11;2.72;;;1.55;;
48189;SDS011;33980;47.436;18.926;2022-09-13T09:23:44;1.92;;;1.25;;
48189;SDS011;33980;47.436;18.926;2022-09-13T09:26:17;3.15;;;1.65;;
48189;SDS011;33980;47.436;18.926;2022-09-13T09:28:48;3.55;;;1.70;;
48189;SDS011;33980;47.436;18.926;2022-09-13T09:31:19;2.30;;;1.27;;
48189;SDS011;33980;47.436;18.926;2022-09-13T09:33:59;5.87;;;1.23;;
48189;SDS011;33980;47.436;18.926;2022-09-13T09:36:36;2.95;;;1.37;;
48189;SDS011;33980;47.436;18.926;2022-09-13T09:39:09;2.05;;;1.27;;
48189;SDS011;33980;47.436;18.926;2022-09-13T09:44:13;3.87;;;1.12;;
48189;SDS011;33980;47.436;18.926;2022-09-13T09:46:46;2.75;;;1.12;;
48189;SDS011;33980;47.436;18.926;2022-09-13T09:49:18;4.45;;;1.35;;
48189;SDS011;33980;47.436;18.926;2022-09-13T09:52:09;1.27;;;0.95;;
48189;SDS011;33980;47.436;18.926;2022-09-13T09:54:38;2.78;;;1.23;;
48189;SDS011;33980;47.436;18.926;2022-09-13T09:57:07;2.25;;;1.12;;
48189;SDS011;33980;47.436;18.926;2022-09-13T09:59:39;2.12;;;1.05;;
48189;SDS011;33980;47.436;18.926;2022-09-13T10:02:12;2.12;;;1.17;;
48189;SDS011;33980;47.436;18.926;2022-09-13T10:04:52;7.12;;;1.98;;
48189;SDS011;33980;47.436;18.926;2022-09-13T10:07:23;1.67;;;1.10;;
48189;SDS011;33980;47.436;18.926;2022-09-13T10:09:58;1.42;;;0.88;;
48189;SDS011;33980;47.436;18.926;2022-09-13T10:12:30;1.90;;;1.10;;
48189;SDS011;33980;47.436;18.926;2022-09-13T10:15:03;2.55;;;1.12;;
48189;SDS011;33980;47.436;18.926;2022-09-13T10:17:34;2.78;;;1.17;;
48189;SDS011;33980;47.436;18.926;2022-09-13T10:20:17;1.40;;;0.80;;
48189;SDS011;33980;47.436;18.926;2022-09-13T10:23:08;2.78;;;0.95;;
48189;SDS011;33980;47.436;18.926;2022-09-13T10:25:38;2.00;;;0.88;;
48189;SDS011;33980;47.436;18.926;2022-09-13T10:28:14;1.10;;;0.90;;
48189;SDS011;33980;47.436;18.926;2022-09-13T10:30:47;2.42;;;1.10;;
48189;SDS011;33980;47.436;18.926;2022-09-13T10:33:23;1.77;;;1.10;;
48189;SDS011;33980;47.436;18.926;2022-09-13T10:35:54;2.80;;;1.10;;
48189;SDS011;33980;47.436;18.926;2022-09-13T10:38:25;2.12;;;1.02;;
48189;SDS011;33980;47.436;18.926;2022-09-13T10:40:58;5.55;;;1.15;;
48189;SDS011;33980;47.436;18.926;2022-09-13T10:43:28;1.98;;;1.12;;
48189;SDS011;33980;47.436;18.926;2022-09-13T10:45:59;2.47;;;1.33;;
48189;SDS011;33980;47.436;18.926;2022-09-13T10:48:30;1.83;;;0.88;;
48189;SDS011;33980;47.436;18.926;2022-09-13T10:51:20;1.33;;;0.90;;
48189;SDS011;33980;47.436;18.926;2022-09-13T10:54:07;1.25;;;0.85;;
48189;SDS011;33980;47.436;18.926;2022-09-13T10:56:37;1.65;;;0.98;;
48189;SDS011;33980;47.436;18.926;2022-09-13T10:59:18;2.78;;;1.33;;
48189;SDS011;33980;47.436;18.926;2022-09-13T11:01:56;1.15;;;0.88;;
48189;SDS011;33980;47.436;18.926;2022-09-13T11:07:30;2.85;;;1.27;;
48189;SDS011;33980;47.436;18.926;2022-09-13T11:10:11;1.35;;;0.80;;
48189;SDS011;33980;47.436;18.926;2022-09-13T11:12:45;4.78;;;1.30;;
48189;SDS011;33980;47.436;18.926;2022-09-13T11:15:25;1.60;;;0.90;;
48189;SDS011;33980;47.436;18.926;2022-09-13T11:18:21;2.25;;;0.90;;
48189;SDS011;33980;47.436;18.926;2022-09-13T11:20:58;1.55;;;0.95;;
48189;SDS011;33980;47.436;18.926;2022-09-13T11:26:25;2.60;;;0.98;;
48189;SDS011;33980;47.436;18.926;2022-09-13T11:29:07;1.33;;;0.70;;
48189;SDS011;33980;47.436;18.926;2022-09-13T11:31:44;1.33;;;0.70;;
48189;SDS011;33980;47.436;18.926;2022-09-13T11:34:21;1.20;;;0.80;;
48189;SDS011;33980;47.436;18.926;2022-09-13T11:40:09;1.65;;;0.80;;
48189;SDS011;33980;47.436;18.926;2022-09-13T11:42:51;2.20;;;0.90;;
48189;SDS011;33980;47.436;18.926;2022-09-13T11:45:27;2.42;;;0.80;;
48189;SDS011;33980;47.436;18.926;2022-09-13T11:48:00;1.62;;;0.95;;
48189;SDS011;33980;47.436;18.926;2022-09-13T11:50:48;0.85;;;0.70;;
48189;SDS011;33980;47.436;18.926;2022-09-13T11:53:38;1.62;;;0.65;;
48189;SDS011;33980;47.436;18.926;2022-09-13T11:56:17;1.62;;;0.80;;
48189;SDS011;33980;47.436;18.926;2022-09-13T11:58:50;1.55;;;1.27;;
48189;SDS011;33980;47.436;18.926;2022-09-13T12:01:21;0.93;;;0.70;;
48189;SDS011;33980;47.436;18.926;2022-09-13T12:03:55;1.02;;;0.70;;
48189;SDS011;33980;47.436;18.926;2022-09-13T12:06:29;3.33;;;1.02;;
48189;SDS011;33980;47.436;18.926;2022-09-13T12:09:02;2.72;;;1.20;;
48189;SDS011;33980;47.436;18.926;2022-09-13T12:11:34;1.67;;;0.65;;
48189;SDS011;33980;47.436;18.926;2022-09-13T12:14:10;1.83;;;0.88;;
48189;SDS011;33980;47.436;18.926;2022-09-13T12:16:40;1.62;;;0.93;;
48189;SDS011;33980;47.436;18.926;2022-09-13T12:19:12;2.85;;;0.88;;
48189;SDS011;33980;47.436;18.926;2022-09-13T12:21:45;1.08;;;0.73;;
48189;SDS011;33980;47.436;18.926;2022-09-13T12:24:16;1.05;;;0.80;;
48189;SDS011;33980;47.436;18.926;2022-09-13T12:26:47;2.72;;;0.80;;
48189;SDS011;33980;47.436;18.926;2022-09-13T12:29:20;1.40;;;0.68;;
48189;SDS011;33980;47.436;18.926;2022-09-13T12:31:53;1.48;;;1.05;;
48189;SDS011;33980;47.436;18.926;2022-09-13T12:34:27;2.70;;;0.85;;
48189;SDS011;33980;47.436;18.926;2022-09-13T12:37:15;0.93;;;0.62;;
48189;SDS011;33980;47.436;18.926;2022-09-13T12:40:08;1.80;;;0.80;;
48189;SDS011;33980;47.436;18.926;2022-09-13T12:42:53;0.88;;;0.68;;
48189;SDS011;33980;47.436;18.926;2022-09-13T12:45:37;1.02;;;0.50;;
48189;SDS011;33980;47.436;18.926;2022-09-13T12:48:25;1.83;;;0.90;;
48189;SDS011;33980;47.436;18.926;2022-09-13T12:51:05;1.83;;;0.77;;
48189;SDS011;33980;47.436;18.926;2022-09-13T12:53:57;1.17;;;0.77;;
48189;SDS011;33980;47.436;18.926;2022-09-13T12:56:48;1.40;;;0.82;;
48189;SDS011;33980;47.436;18.926;2022-09-13T12:59:35;2.35;;;1.70;;
48189;SDS011;33980;47.436;18.926;2022-09-13T13:02:27;1.00;;;0.65;;
48189;SDS011;33980;47.436;18.926;2022-09-13T13:04:59;0.52;;;0.52;;
48189;SDS011;33980;47.436;18.926;2022-09-13T13:07:30;1.45;;;0.70;;
48189;SDS011;33980;47.436;18.926;2022-09-13T13:12:33;2.53;;;0.90;;
48189;SDS011;33980;47.436;18.926;2022-09-13T13:15:04;1.50;;;0.85;;
48189;SDS011;33980;47.436;18.926;2022-09-13T13:17:43;1.00;;;0.70;;
48189;SDS011;33980;47.436;18.926;2022-09-13T13:23:16;0.73;;;0.73;;
48189;SDS011;33980;47.436;18.926;2022-09-13T13:25:56;1.05;;;0.60;;
48189;SDS011;33980;47.436;18.926;2022-09-13T13:28:49;0.73;;;0.62;;
48189;SDS011;33980;47.436;18.926;2022-09-13T13:31:32;0.77;;;0.50;;
48189;SDS011;33980;47.436;18.926;2022-09-13T13:34:24;1.73;;;0.93;;
48189;SDS011;33980;47.436;18.926;2022-09-13T13:37:23;1.60;;;0.80;;
48189;SDS011;33980;47.436;18.926;2022-09-13T13:43:15;1.77;;;0.80;;
48189;SDS011;33980;47.436;18.926;2022-09-13T13:45:58;2.60;;;0.70;;
48189;SDS011;33980;47.436;18.926;2022-09-13T13:48:42;1.62;;;0.80;;
48189;SDS011;33980;47.436;18.926;2022-09-13T13:51:12;1.80;;;0.60;;
48189;SDS011;33980;47.436;18.926;2022-09-13T13:53:43;1.00;;;0.60;;
48189;SDS011;33980;47.436;18.926;2022-09-13T13:56:19;1.58;;;0.60;;
48189;SDS011;33980;47.436;18.926;2022-09-13T13:58:53;4.65;;;0.77;;
48189;SDS011;33980;47.436;18.926;2022-09-13T14:01:24;0.70;;;0.65;;
48189;SDS011;33980;47.436;18.926;2022-09-13T14:03:58;1.05;;;0.73;;
48189;SDS011;33980;47.436;18.926;2022-09-13T14:06:54;0.90;;;0.68;;
48189;SDS011;33980;47.436;18.926;2022-09-13T14:09:37;1.27;;;0.70;;
48189;SDS011;33980;47.436;18.926;2022-09-13T14:12:19;2.10;;;0.75;;
48189;SDS011;33980;47.436;18.926;2022-09-13T14:14:57;1.12;;;0.50;;
48189;SDS011;33980;47.436;18.926;2022-09-13T14:17:43;1.65;;;0.82;;
48189;SDS011;33980;47.436;18.926;2022-09-13T14:20:27;0.60;;;0.60;;
48189;SDS011;33980;47.436;18.926;2022-09-13T14:23:11;0.77;;;0.62;;
48189;SDS011;33980;47.436;18.926;2022-09-13T14:25:43;1.25;;;0.70;;
48189;SDS011;33980;47.436;18.926;2022-09-13T14:28:21;1.75;;;0.75;;
48189;SDS011;33980;47.436;18.926;2022-09-13T14:30:55;1.12;;;0.60;;
48189;SDS011;33980;47.436;18.926;2022-09-13T14:33:26;0.50;;;0.50;;
48189;SDS011;33980;47.436;18.926;2022-09-13T14:35:59;1.55;;;0.70;;
48189;SDS011;33980;47.436;18.926;2022-09-13T14:38:31;1.20;;;0.40;;
48189;SDS011;33980;47.436;18.926;2022-09-13T14:41:09;0.65;;;0.50;;
48189;SDS011;33980;47.436;18.926;2022-09-13T14:43:40;1.35;;;0.80;;
48189;SDS011;33980;47.436;18.926;2022-09-13T14:46:12;0.50;;;0.30;;
48189;SDS011;33980;47.436;18.926;2022-09-13T14:48:45;2.87;;;1.00;;
48189;SDS011;33980;47.436;18.926;2022-09-13T14:51:19;0.37;;;0.37;;
48189;SDS011;33980;47.436;18.926;2022-09-13T14:53:51;1.65;;;0.55;;
48189;SDS011;33980;47.436;18.926;2022-09-13T14:56:30;0.93;;;0.45;;
48189;SDS011;33980;47.436;18.926;2022-09-13T14:59:01;0.50;;;0.50;;
48189;SDS011;33980;47.436;18.926;2022-09-13T15:04:02;1.50;;;0.70;;
48189;SDS011;33980;47.436;18.926;2022-09-13T15:06:33;1.20;;;0.77;;
48189;SDS011;33980;47.436;18.926;2022-09-13T15:09:14;0.95;;;0.50;;
48189;SDS011;33980;47.436;18.926;2022-09-13T15:11:57;0.32;;;0.32;;
48189;SDS011;33980;47.436;18.926;2022-09-13T15:14:27;1.60;;;0.75;;
48189;SDS011;33980;47.436;18.926;2022-09-13T15:17:05;1.37;;;0.93;;
48189;SDS011;33980;47.436;18.926;2022-09-13T15:19:36;2.28;;;1.33;;
48189;SDS011;33980;47.436;18.926;2022-09-13T15:22:13;1.65;;;0.70;;
48189;SDS011;33980;47.436;18.926;2022-09-13T15:24:45;2.33;;;0.82;;
48189;SDS011;33980;47.436;18.926;2022-09-13T15:27:25;1.30;;;0.75;;
48189;SDS011;33980;47.436;18.926;2022-09-13T15:29:56;1.67;;;0.80;;
48189;SDS011;33980;47.436;18.926;2022-09-13T15:32:31;0.50;;;0.50;;
48189;SDS011;33980;47.436;18.926;2022-09-13T15:35:01;2.60;;;1.00;;
48189;SDS011;33980;47.436;18.926;2022-09-13T15:37:32;1.10;;;0.50;;
48189;SDS011;33980;47.436;18.926;2022-09-13T15:40:13;1.55;;;0.82;;
48189;SDS011;33980;47.436;18.926;2022-09-13T15:42:45;2.40;;;0.95;;